sensor_id;sensor_type;location;lat;lon;timestamp;pressure;altitude;pressure_sealevel;temperature;humidity
498;BME280;39559;48.630;9.162;2023-08-08T00:01:29;97650.06;;;9.58;100.00
498;BME280;39559;48.630;9.162;2023-08-08T00:03:54;97649.78;;;9.66;100.00
498;BME280;39559;48.630;9.162;2023-08-08T00:06:20;97653.34;;;9.63;100.00
498;BME280;39559;48.630;9.162;2023-08-08T00:10:52;97645.84;;;9.55;100.00
498;BME280;39559;48.630;9.162;2023-08-08T00:13:18;97641.50;;;9.56;100.00
498;BME280;39559;48.630;9.162;2023-08-08T00:15:43;97645.13;;;9.52;100.00
498;BME280;39559;48.630;9.162;2023-08-08T00:18:09;97648.66;;;9.49;100.00
498;BME280;39559;48.630;9.162;2023-08-08T00:20:35;97645.41;;;9.44;100.00
498;BME280;39559;48.630;9.162;2023-08-08T00:23:00;97636.03;;;9.40;100.00
498;BME280;39559;48.630;9.162;2023-08-08T00:25:26;97641.41;;;9.59;100.00
498;BME280;39559;48.630;9.162;2023-08-08T00:27:51;97644.06;;;9.57;100.00
498;BME280;39559;48.630;9.162;2023-08-08T00:30:17;97644.81;;;9.36;100.00
498;BME280;39559;48.630;9.162;2023-08-08T00:34:50;97649.44;;;9.51;100.00
498;BME280;39559;48.630;9.162;2023-08-08T00:37:16;97651.03;;;9.55;100.00
498;BME280;39559;48.630;9.162;2023-08-08T00:39:42;97651.66;;;9.62;100.00
498;BME280;39559;48.630;9.162;2023-08-08T00:42:12;97650.03;;;9.59;100.00
498;BME280;39559;48.630;9.162;2023-08-08T00:44:38;97642.94;;;9.65;100.00
498;BME280;39559;48.630;9.162;2023-08-08T00:47:03;97642.81;;;9.68;100.00
498;BME280;39559;48.630;9.162;2023-08-08T00:49:29;97644.41;;;9.72;100.00
498;BME280;39559;48.630;9.162;2023-08-08T00:51:55;97635.88;;;9.68;100.00
498;BME280;39559;48.630;9.162;2023-08-08T00:54:23;97633.84;;;9.76;100.00
498;BME280;39559;48.630;9.162;2023-08-08T00:58:48;97640.78;;;9.76;100.00
498;BME280;39559;48.630;9.162;2023-08-08T01:01:16;97632.66;;;9.85;100.00
498;BME280;39559;48.630;9.162;2023-08-08T01:03:42;97633.84;;;9.76;100.00
498;BME280;39559;48.630;9.162;2023-08-08T01:06:18;97630.06;;;9.85;100.00
498;BME280;39559;48.630;9.162;2023-08-08T01:08:53;97630.41;;;9.99;100.00
498;BME280;39559;48.630;9.162;2023-08-08T01:11:21;97633.78;;;10.02;100.00
498;BME280;39559;48.630;9.162;2023-08-08T01:13:47;97632.16;;;9.99;100.00
498;BME280;39559;48.630;9.162;2023-08-08T01:16:13;97625.56;;;9.90;100.00
498;BME280;39559;48.630;9.162;2023-08-08T01:18:39;97635.09;;;9.90;100.00
498;BME280;39559;48.630;9.162;2023-08-08T01:22:58;97626.81;;;10.02;100.00
498;BME280;39559;48.630;9.162;2023-08-08T01:25:29;97629.44;;;10.02;100.00
498;BME280;39559;48.630;9.162;2023-08-08T01:27:55;97629.94;;;10.12;100.00
498;BME280;39559;48.630;9.162;2023-08-08T01:30:20;97624.03;;;10.08;100.00
498;BME280;39559;48.630;9.162;2023-08-08T01:32:46;97621.00;;;10.19;100.00
498;BME280;39559;48.630;9.162;2023-08-08T01:35:11;97619.59;;;10.10;100.00
498;BME280;39559;48.630;9.162;2023-08-08T01:37:50;97619.56;;;10.12;100.00
498;BME280;39559;48.630;9.162;2023-08-08T01:40:18;97618.81;;;10.08;100.00
498;BME280;39559;48.630;9.162;2023-08-08T01:42:48;97616.03;;;10.13;100.00
498;BME280;39559;48.630;9.162;2023-08-08T01:46:45;97608.72;;;10.24;100.00
498;BME280;39559;48.630;9.162;2023-08-08T01:49:10;97606.88;;;10.26;100.00
498;BME280;39559;48.630;9.162;2023-08-08T01:51:36;97600.84;;;10.26;100.00
498;BME280;39559;48.630;9.162;2023-08-08T01:54:01;97600.72;;;10.29;100.00
498;BME280;39559;48.630;9.162;2023-08-08T01:56:28;97591.94;;;10.33;100.00
498;BME280;39559;48.630;9.162;2023-08-08T01:58:53;97593.13;;;10.24;100.00
498;BME280;39559;48.630;9.162;2023-08-08T02:01:19;97601.03;;;10.21;100.00
498;BME280;39559;48.630;9.162;2023-08-08T02:03:45;97599.06;;;10.28;100.00
498;BME280;39559;48.630;9.162;2023-08-08T02:06:10;97600.06;;;10.24;100.00
498;BME280;39559;48.630;9.162;2023-08-08T02:10:43;97603.84;;;10.15;100.00
498;BME280;39559;48.630;9.162;2023-08-08T02:13:08;97594.91;;;10.22;100.00
498;BME280;39559;48.630;9.162;2023-08-08T02:15:34;97594.91;;;10.22;100.00
498;BME280;39559;48.630;9.162;2023-08-08T02:18:00;97594.53;;;10.33;100.00
498;BME280;39559;48.630;9.162;2023-08-08T02:20:26;97587.94;;;10.24;100.00
498;BME280;39559;48.630;9.162;2023-08-08T02:22:52;97590.72;;;10.42;100.00
498;BME280;39559;48.630;9.162;2023-08-08T02:25:17;97587.13;;;10.22;100.00
498;BME280;39559;48.630;9.162;2023-08-08T02:27:43;97585.63;;;10.16;100.00
498;BME280;39559;48.630;9.162;2023-08-08T02:30:09;97590.28;;;10.08;100.00
498;BME280;39559;48.630;9.162;2023-08-08T02:34:41;97595.28;;;10.13;100.00
498;BME280;39559;48.630;9.162;2023-08-08T02:37:07;97596.63;;;10.01;100.00
498;BME280;39559;48.630;9.162;2023-08-08T02:39:33;97593.66;;;10.10;100.00
498;BME280;39559;48.630;9.162;2023-08-08T02:41:59;97585.41;;;10.01;100.00
498;BME280;39559;48.630;9.162;2023-08-08T02:44:24;97586.81;;;9.86;100.00
498;BME280;39559;48.630;9.162;2023-08-08T02:46:50;97589.19;;;10.14;100.00
498;BME280;39559;48.630;9.162;2023-08-08T02:49:15;97596.31;;;10.09;100.00
498;BME280;39559;48.630;9.162;2023-08-08T02:51:41;97598.91;;;10.09;100.00
498;BME280;39559;48.630;9.162;2023-08-08T02:54:06;97589.63;;;10.03;100.00
498;BME280;39559;48.630;9.162;2023-08-08T02:58:39;97588.59;;;10.07;100.00
498;BME280;39559;48.630;9.162;2023-08-08T03:01:05;97589.44;;;10.08;100.00
498;BME280;39559;48.630;9.162;2023-08-08T03:03:30;97588.09;;;9.97;100.00
498;BME280;39559;48.630;9.162;2023-08-08T03:05:56;97590.44;;;10.04;100.00
498;BME280;39559;48.630;9.162;2023-08-08T03:08:21;97591.06;;;10.10;100.00
498;BME280;39559;48.630;9.162;2023-08-08T03:10:47;97590.66;;;9.99;100.00
498;BME280;39559;48.630;9.162;2023-08-08T03:13:12;97595.16;;;9.94;100.00
498;BME280;39559;48.630;9.162;2023-08-08T03:15:38;97594.47;;;9.89;100.00
498;BME280;39559;48.630;9.162;2023-08-08T03:18:04;97589.06;;;9.71;100.00
498;BME280;39559;48.630;9.162;2023-08-08T03:22:37;97584.16;;;9.87;100.00
498;BME280;39559;48.630;9.162;2023-08-08T03:25:04;97584.81;;;9.70;100.00
498;BME280;39559;48.630;9.162;2023-08-08T03:27:30;97580.91;;;9.58;100.00
498;BME280;39559;48.630;9.162;2023-08-08T03:29:56;97580.81;;;9.61;100.00
498;BME280;39559;48.630;9.162;2023-08-08T03:32:22;97583.25;;;9.66;100.00
498;BME280;39559;48.630;9.162;2023-08-08T03:34:48;97585.38;;;9.55;100.00
498;BME280;39559;48.630;9.162;2023-08-08T03:37:13;97595.28;;;9.67;100.00
498;BME280;39559;48.630;9.162;2023-08-08T03:39:39;97584.09;;;9.67;100.00
498;BME280;39559;48.630;9.162;2023-08-08T03:42:05;97591.03;;;9.66;100.00
498;BME280;39559;48.630;9.162;2023-08-08T03:46:36;97588.75;;;9.80;100.00
498;BME280;39559;48.630;9.162;2023-08-08T03:49:01;97584.78;;;9.94;100.00
498;BME280;39559;48.630;9.162;2023-08-08T03:51:27;97591.06;;;9.88;100.00
498;BME280;39559;48.630;9.162;2023-08-08T03:53:53;97587.50;;;9.91;100.00
498;BME280;39559;48.630;9.162;2023-08-08T03:56:18;97602.09;;;9.93;100.00
498;BME280;39559;48.630;9.162;2023-08-08T03:58:44;97596.19;;;9.90;100.00
498;BME280;39559;48.630;9.162;2023-08-08T04:01:09;97594.06;;;9.99;100.00
498;BME280;39559;48.630;9.162;2023-08-08T04:03:35;97591.91;;;10.11;100.00
498;BME280;39559;48.630;9.162;2023-08-08T04:06:02;97595.22;;;10.14;100.00
498;BME280;39559;48.630;9.162;2023-08-08T04:10:34;97597.44;;;10.02;100.00
498;BME280;39559;48.630;9.162;2023-08-08T04:13:00;97589.25;;;10.12;100.00
498;BME280;39559;48.630;9.162;2023-08-08T04:15:25;97593.59;;;10.12;100.00
498;BME280;39559;48.630;9.162;2023-08-08T04:17:51;97597.72;;;10.17;100.00
498;BME280;39559;48.630;9.162;2023-08-08T04:20:16;97594.81;;;10.25;100.00
498;BME280;39559;48.630;9.162;2023-08-08T04:22:42;97591.31;;;10.26;100.00
498;BME280;39559;48.630;9.162;2023-08-08T04:25:07;97595.78;;;10.23;100.00
498;BME280;39559;48.630;9.162;2023-08-08T04:27:33;97594.13;;;10.20;100.00
498;BME280;39559;48.630;9.162;2023-08-08T04:29:59;97598.59;;;10.16;100.00
498;BME280;39559;48.630;9.162;2023-08-08T04:34:32;97604.66;;;10.17;100.00
498;BME280;39559;48.630;9.162;2023-08-08T04:36:58;97596.88;;;10.17;100.00
498;BME280;39559;48.630;9.162;2023-08-08T04:39:24;97596.25;;;10.10;100.00
498;BME280;39559;48.630;9.162;2023-08-08T04:41:49;97594.50;;;10.11;100.00
498;BME280;39559;48.630;9.162;2023-08-08T04:44:14;97594.63;;;10.08;100.00
498;BME280;39559;48.630;9.162;2023-08-08T04:46:40;97597.94;;;10.11;100.00
498;BME280;39559;48.630;9.162;2023-08-08T04:49:05;97597.81;;;10.14;100.00
498;BME280;39559;48.630;9.162;2023-08-08T04:51:32;97600.28;;;9.95;100.00
498;BME280;39559;48.630;9.162;2023-08-08T04:53:57;97608.03;;;9.97;100.00
498;BME280;39559;48.630;9.162;2023-08-08T04:58:31;97610.66;;;9.95;100.00
498;BME280;39559;48.630;9.162;2023-08-08T05:00:56;97612.13;;;10.03;100.00
498;BME280;39559;48.630;9.162;2023-08-08T05:03:22;97613.59;;;10.10;100.00
498;BME280;39559;48.630;9.162;2023-08-08T05:05:47;97611.72;;;10.13;100.00
498;BME280;39559;48.630;9.162;2023-08-08T05:08:13;97612.13;;;10.03;100.00
498;BME280;39559;48.630;9.162;2023-08-08T05:10:39;97612.72;;;10.09;100.00
498;BME280;39559;48.630;9.162;2023-08-08T05:13:05;97614.59;;;10.06;100.00
498;BME280;39559;48.630;9.162;2023-08-08T05:15:31;97609.75;;;10.18;100.00
498;BME280;39559;48.630;9.162;2023-08-08T05:17:57;97601.44;;;10.10;100.00
498;BME280;39559;48.630;9.162;2023-08-08T05:22:29;97600.81;;;10.04;100.00
498;BME280;39559;48.630;9.162;2023-08-08T05:24:55;97600.31;;;10.17;100.00
498;BME280;39559;48.630;9.162;2023-08-08T05:27:20;97603.00;;;10.14;100.00
498;BME280;39559;48.630;9.162;2023-08-08T05:29:46;97593.63;;;10.34;100.00
498;BME280;39559;48.630;9.162;2023-08-08T05:32:11;97590.34;;;10.29;100.00
498;BME280;39559;48.630;9.162;2023-08-08T05:34:37;97587.22;;;10.21;100.00
498;BME280;39559;48.630;9.162;2023-08-08T05:37:03;97588.78;;;10.25;100.00
498;BME280;39559;48.630;9.162;2023-08-08T05:39:29;97578.13;;;10.32;100.00
498;BME280;39559;48.630;9.162;2023-08-08T05:41:56;97587.47;;;10.36;100.00
498;BME280;39559;48.630;9.162;2023-08-08T05:46:28;97578.88;;;10.56;100.00
498;BME280;39559;48.630;9.162;2023-08-08T05:48:53;97584.06;;;10.56;100.00
498;BME280;39559;48.630;9.162;2023-08-08T05:51:19;97593.22;;;10.65;100.00
498;BME280;39559;48.630;9.162;2023-08-08T05:53:44;97586.16;;;10.89;100.00
498;BME280;39559;48.630;9.162;2023-08-08T05:56:10;97594.03;;;10.88;100.00
498;BME280;39559;48.630;9.162;2023-08-08T05:58:35;97596.16;;;10.99;100.00
498;BME280;39559;48.630;9.162;2023-08-08T06:01:03;97602.66;;;11.09;100.00
498;BME280;39559;48.630;9.162;2023-08-08T06:03:31;97600.91;;;11.30;100.00
498;BME280;39559;48.630;9.162;2023-08-08T06:05:57;97600.69;;;11.34;100.00
498;BME280;39559;48.630;9.162;2023-08-08T06:10:26;97606.16;;;11.68;100.00
498;BME280;39559;48.630;9.162;2023-08-08T06:12:52;97598.72;;;11.79;100.00
498;BME280;39559;48.630;9.162;2023-08-08T06:15:18;97601.13;;;12.03;100.00
498;BME280;39559;48.630;9.162;2023-08-08T06:17:43;97597.47;;;12.07;100.00
498;BME280;39559;48.630;9.162;2023-08-08T06:20:09;97597.03;;;12.16;100.00
498;BME280;39559;48.630;9.162;2023-08-08T06:22:36;97596.66;;;12.24;100.00
498;BME280;39559;48.630;9.162;2023-08-08T06:25:02;97590.81;;;12.38;100.00
498;BME280;39559;48.630;9.162;2023-08-08T06:27:28;97588.66;;;12.46;100.00
498;BME280;39559;48.630;9.162;2023-08-08T06:29:54;97583.72;;;12.59;100.00
498;BME280;39559;48.630;9.162;2023-08-08T06:34:24;97576.72;;;12.77;100.00
498;BME280;39559;48.630;9.162;2023-08-08T06:36:50;97580.09;;;12.96;100.00
498;BME280;39559;48.630;9.162;2023-08-08T06:39:15;97577.47;;;13.31;100.00
498;BME280;39559;48.630;9.162;2023-08-08T06:41:41;97582.72;;;13.47;100.00
498;BME280;39559;48.630;9.162;2023-08-08T06:44:07;97580.91;;;13.65;100.00
498;BME280;39559;48.630;9.162;2023-08-08T06:46:33;97590.44;;;13.66;100.00
498;BME280;39559;48.630;9.162;2023-08-08T06:48:58;97582.28;;;13.72;100.00
498;BME280;39559;48.630;9.162;2023-08-08T06:51:25;97576.72;;;13.78;100.00
498;BME280;39559;48.630;9.162;2023-08-08T06:53:51;97579.91;;;13.83;100.00
498;BME280;39559;48.630;9.162;2023-08-08T06:58:23;97573.44;;;14.23;100.00
498;BME280;39559;48.630;9.162;2023-08-08T07:00:50;97574.44;;;14.36;100.00
498;BME280;39559;48.630;9.162;2023-08-08T07:03:16;97565.47;;;14.40;100.00
498;BME280;39559;48.630;9.162;2023-08-08T07:05:41;97574.25;;;14.85;100.00
498;BME280;39559;48.630;9.162;2023-08-08T07:08:07;97571.38;;;14.59;100.00
498;BME280;39559;48.630;9.162;2023-08-08T07:10:35;97572.25;;;14.74;100.00
498;BME280;39559;48.630;9.162;2023-08-08T07:13:01;97576.28;;;14.80;100.00
498;BME280;39559;48.630;9.162;2023-08-08T07:15:27;97575.56;;;14.92;100.00
498;BME280;39559;48.630;9.162;2023-08-08T07:17:53;97578.38;;;15.04;100.00
498;BME280;39559;48.630;9.162;2023-08-08T07:22:21;97581.44;;;15.26;100.00
498;BME280;39559;48.630;9.162;2023-08-08T07:24:47;97576.75;;;15.46;100.00
498;BME280;39559;48.630;9.162;2023-08-08T07:27:13;97572.34;;;15.61;100.00
498;BME280;39559;48.630;9.162;2023-08-08T07:29:38;97563.47;;;15.63;100.00
498;BME280;39559;48.630;9.162;2023-08-08T07:32:04;97573.22;;;15.76;100.00
498;BME280;39559;48.630;9.162;2023-08-08T07:34:30;97563.25;;;15.95;100.00
498;BME280;39559;48.630;9.162;2023-08-08T07:36:57;97566.91;;;15.92;100.00
498;BME280;39559;48.630;9.162;2023-08-08T07:39:23;97562.97;;;16.00;100.00
498;BME280;39559;48.630;9.162;2023-08-08T07:41:48;97559.00;;;16.21;100.00
498;BME280;39559;48.630;9.162;2023-08-08T07:46:19;97566.81;;;16.08;100.00
498;BME280;39559;48.630;9.162;2023-08-08T07:48:45;97560.97;;;16.18;100.00
498;BME280;39559;48.630;9.162;2023-08-08T07:51:10;97567.16;;;16.57;100.00
498;BME280;39559;48.630;9.162;2023-08-08T07:53:36;97559.03;;;16.34;100.00
498;BME280;39559;48.630;9.162;2023-08-08T07:56:01;97563.28;;;16.22;100.00
498;BME280;39559;48.630;9.162;2023-08-08T07:58:27;97559.31;;;16.29;100.00
498;BME280;39559;48.630;9.162;2023-08-08T08:00:53;97555.16;;;16.67;100.00
498;BME280;39559;48.630;9.162;2023-08-08T08:03:19;97557.09;;;16.50;100.00
498;BME280;39559;48.630;9.162;2023-08-08T08:05:45;97551.50;;;16.42;97.71
498;BME280;39559;48.630;9.162;2023-08-08T08:10:18;97552.19;;;16.59;100.00
498;BME280;39559;48.630;9.162;2023-08-08T08:12:44;97540.38;;;16.79;100.00
498;BME280;39559;48.630;9.162;2023-08-08T08:15:10;97551.19;;;16.74;99.64
498;BME280;39559;48.630;9.162;2023-08-08T08:17:35;97548.19;;;16.53;100.00
498;BME280;39559;48.630;9.162;2023-08-08T08:20:01;97551.47;;;16.69;98.72
498;BME280;39559;48.630;9.162;2023-08-08T08:22:31;97564.03;;;16.64;96.50
498;BME280;39559;48.630;9.162;2023-08-08T08:24:57;97556.06;;;16.66;100.00
498;BME280;39559;48.630;9.162;2023-08-08T08:27:22;97548.81;;;16.97;100.00
498;BME280;39559;48.630;9.162;2023-08-08T08:29:48;97549.75;;;16.83;100.00
498;BME280;39559;48.630;9.162;2023-08-08T08:34:15;97551.63;;;16.81;94.79
498;BME280;39559;48.630;9.162;2023-08-08T08:36:41;97561.63;;;17.01;100.00
498;BME280;39559;48.630;9.162;2023-08-08T08:39:06;97553.34;;;16.67;97.46
498;BME280;39559;48.630;9.162;2023-08-08T08:41:33;97549.47;;;16.73;94.53
498;BME280;39559;48.630;9.162;2023-08-08T08:44:01;97549.38;;;16.62;98.43
498;BME280;39559;48.630;9.162;2023-08-08T08:46:27;97549.19;;;16.78;93.53
498;BME280;39559;48.630;9.162;2023-08-08T08:48:54;97549.88;;;17.20;93.33
498;BME280;39559;48.630;9.162;2023-08-08T08:51:22;97544.72;;;17.31;93.68
498;BME280;39559;48.630;9.162;2023-08-08T08:53:47;97538.84;;;17.27;90.00
498;BME280;39559;48.630;9.162;2023-08-08T08:58:15;97543.88;;;17.43;95.47
498;BME280;39559;48.630;9.162;2023-08-08T09:00:44;97539.69;;;17.28;89.04
498;BME280;39559;48.630;9.162;2023-08-08T09:03:11;97543.06;;;17.30;90.97
498;BME280;39559;48.630;9.162;2023-08-08T09:05:38;97537.56;;;17.46;89.09
498;BME280;39559;48.630;9.162;2023-08-08T09:08:05;97552.19;;;17.50;87.76
498;BME280;39559;48.630;9.162;2023-08-08T09:10:31;97540.81;;;17.50;88.62
498;BME280;39559;48.630;9.162;2023-08-08T09:12:57;97542.66;;;17.73;87.81
498;BME280;39559;48.630;9.162;2023-08-08T09:15:23;97544.41;;;17.49;86.99
498;BME280;39559;48.630;9.162;2023-08-08T09:17:48;97540.06;;;17.60;87.42
498;BME280;39559;48.630;9.162;2023-08-08T09:22:13;97536.47;;;17.74;87.50
498;BME280;39559;48.630;9.162;2023-08-08T09:24:40;97532.34;;;17.96;89.40
498;BME280;39559;48.630;9.162;2023-08-08T09:27:07;97530.50;;;18.33;86.60
498;BME280;39559;48.630;9.162;2023-08-08T09:29:33;97530.66;;;18.19;80.39
498;BME280;39559;48.630;9.162;2023-08-08T09:31:58;97527.63;;;18.60;89.89
498;BME280;39559;48.630;9.162;2023-08-08T09:34:25;97517.78;;;18.51;85.36
498;BME280;39559;48.630;9.162;2023-08-08T09:36:52;97530.13;;;18.51;85.04
498;BME280;39559;48.630;9.162;2023-08-08T09:39:17;97524.63;;;18.54;80.72
498;BME280;39559;48.630;9.162;2023-08-08T09:41:45;97518.97;;;18.47;84.00
498;BME280;39559;48.630;9.162;2023-08-08T09:46:10;97513.94;;;18.44;80.25
498;BME280;39559;48.630;9.162;2023-08-08T09:48:38;97518.38;;;18.44;78.32
498;BME280;39559;48.630;9.162;2023-08-08T09:51:05;97520.66;;;18.24;78.25
498;BME280;39559;48.630;9.162;2023-08-08T09:53:32;97528.91;;;18.19;80.55
498;BME280;39559;48.630;9.162;2023-08-08T09:55:58;97518.88;;;18.49;82.43
498;BME280;39559;48.630;9.162;2023-08-08T09:58:25;97505.88;;;18.70;80.43
498;BME280;39559;48.630;9.162;2023-08-08T10:00:51;97510.16;;;18.84;82.62
498;BME280;39559;48.630;9.162;2023-08-08T10:03:17;97500.34;;;18.97;76.65
498;BME280;39559;48.630;9.162;2023-08-08T10:05:43;97495.59;;;19.02;71.63
498;BME280;39559;48.630;9.162;2023-08-08T10:10:08;97504.19;;;19.15;77.97
498;BME280;39559;48.630;9.162;2023-08-08T10:12:38;97499.66;;;19.06;76.98
498;BME280;39559;48.630;9.162;2023-08-08T10:15:07;97505.72;;;18.84;75.50
498;BME280;39559;48.630;9.162;2023-08-08T10:17:40;97505.16;;;19.14;79.20
498;BME280;39559;48.630;9.162;2023-08-08T10:20:10;97506.47;;;18.97;72.23
498;BME280;39559;48.630;9.162;2023-08-08T10:22:41;97500.78;;;18.79;69.50
498;BME280;39559;48.630;9.162;2023-08-08T10:25:07;97500.84;;;18.91;68.53
498;BME280;39559;48.630;9.162;2023-08-08T10:27:34;97494.03;;;19.11;69.87
498;BME280;39559;48.630;9.162;2023-08-08T10:30:08;97492.50;;;19.20;66.89
498;BME280;39559;48.630;9.162;2023-08-08T10:34:05;97498.47;;;19.10;70.44
498;BME280;39559;48.630;9.162;2023-08-08T10:36:51;97495.59;;;19.13;70.64
498;BME280;39559;48.630;9.162;2023-08-08T10:39:21;97494.03;;;19.56;71.75
498;BME280;39559;48.630;9.162;2023-08-08T10:41:50;97488.91;;;19.32;72.24
498;BME280;39559;48.630;9.162;2023-08-08T10:44:23;97491.56;;;19.32;70.64
498;BME280;39559;48.630;9.162;2023-08-08T10:46:50;97493.44;;;19.52;71.19
498;BME280;39559;48.630;9.162;2023-08-08T10:49:17;97485.19;;;19.34;65.63
498;BME280;39559;48.630;9.162;2023-08-08T10:51:44;97485.31;;;19.22;64.71
498;BME280;39559;48.630;9.162;2023-08-08T10:54:14;97483.38;;;19.35;68.90
498;BME280;39559;48.630;9.162;2023-08-08T11:00:32;97475.81;;;19.87;64.14
498;BME280;39559;48.630;9.162;2023-08-08T11:02:58;97477.44;;;20.31;65.25
498;BME280;39559;48.630;9.162;2023-08-08T11:05:25;97464.75;;;20.58;67.89
498;BME280;39559;48.630;9.162;2023-08-08T11:07:52;97482.19;;;20.70;64.40
498;BME280;39559;48.630;9.162;2023-08-08T11:10:18;97476.59;;;20.84;59.22
498;BME280;39559;48.630;9.162;2023-08-08T11:13:16;97476.88;;;20.81;61.58
498;BME280;39559;48.630;9.162;2023-08-08T11:15:42;97469.84;;;20.70;56.94
498;BME280;39559;48.630;9.162;2023-08-08T11:18:07;97476.94;;;20.59;58.08
498;BME280;39559;48.630;9.162;2023-08-08T11:21:58;97464.50;;;20.82;55.91
498;BME280;39559;48.630;9.162;2023-08-08T11:24:23;97463.94;;;20.78;60.64
498;BME280;39559;48.630;9.162;2023-08-08T11:26:49;97464.78;;;21.09;60.20
498;BME280;39559;48.630;9.162;2023-08-08T11:29:16;97480.16;;;21.25;60.47
498;BME280;39559;48.630;9.162;2023-08-08T11:31:42;97476.88;;;20.81;53.55
498;BME280;39559;48.630;9.162;2023-08-08T11:34:07;97478.09;;;20.24;54.49
498;BME280;39559;48.630;9.162;2023-08-08T11:36:35;97473.13;;;19.98;57.20
498;BME280;39559;48.630;9.162;2023-08-08T11:39:03;97472.22;;;20.20;56.64
498;BME280;39559;48.630;9.162;2023-08-08T11:41:34;97470.44;;;20.42;56.95
498;BME280;39559;48.630;9.162;2023-08-08T11:45:54;97470.31;;;20.76;56.45
498;BME280;39559;48.630;9.162;2023-08-08T11:48:21;97468.94;;;20.81;57.20
498;BME280;39559;48.630;9.162;2023-08-08T11:50:46;97466.09;;;20.94;52.75
498;BME280;39559;48.630;9.162;2023-08-08T11:53:12;97456.25;;;20.96;56.01
498;BME280;39559;48.630;9.162;2023-08-08T11:55:37;97453.53;;;20.86;53.72
498;BME280;39559;48.630;9.162;2023-08-08T11:58:03;97457.06;;;21.27;55.70
498;BME280;39559;48.630;9.162;2023-08-08T12:00:30;97455.25;;;21.28;52.01
498;BME280;39559;48.630;9.162;2023-08-08T12:02:57;97452.28;;;21.12;52.03
498;BME280;39559;48.630;9.162;2023-08-08T12:05:23;97456.00;;;21.71;58.43
498;BME280;39559;48.630;9.162;2023-08-08T12:09:52;97453.91;;;21.74;49.62
498;BME280;39559;48.630;9.162;2023-08-08T12:12:19;97452.81;;;21.05;53.49
498;BME280;39559;48.630;9.162;2023-08-08T12:14:45;97468.03;;;20.92;53.02
498;BME280;39559;48.630;9.162;2023-08-08T12:17:12;97452.53;;;21.39;50.73
498;BME280;39559;48.630;9.162;2023-08-08T12:19:45;97456.00;;;21.71;50.48
498;BME280;39559;48.630;9.162;2023-08-08T12:22:10;97445.97;;;21.94;47.62
498;BME280;39559;48.630;9.162;2023-08-08T12:24:36;97457.84;;;22.19;51.72
498;BME280;39559;48.630;9.162;2023-08-08T12:27:02;97448.81;;;22.21;49.62
498;BME280;39559;48.630;9.162;2023-08-08T12:29:28;97433.47;;;22.05;51.10
498;BME280;39559;48.630;9.162;2023-08-08T12:33:47;97437.50;;;21.80;48.60
498;BME280;39559;48.630;9.162;2023-08-08T12:36:14;97435.16;;;21.97;48.75
498;BME280;39559;48.630;9.162;2023-08-08T12:38:40;97423.72;;;22.26;52.15
498;BME280;39559;48.630;9.162;2023-08-08T12:41:05;97431.69;;;22.45;49.69
498;BME280;39559;48.630;9.162;2023-08-08T12:43:31;97427.50;;;22.52;53.67
498;BME280;39559;48.630;9.162;2023-08-08T12:45:59;97418.16;;;22.48;47.60
498;BME280;39559;48.630;9.162;2023-08-08T12:48:25;97419.44;;;22.44;51.48
498;BME280;39559;48.630;9.162;2023-08-08T12:50:51;97433.63;;;22.23;50.47
498;BME280;39559;48.630;9.162;2023-08-08T12:53:16;97431.41;;;22.09;49.05
498;BME280;39559;48.630;9.162;2023-08-08T12:57:43;97427.06;;;21.98;51.23
498;BME280;39559;48.630;9.162;2023-08-08T13:00:10;97417.75;;;21.94;50.44
498;BME280;39559;48.630;9.162;2023-08-08T13:02:37;97410.66;;;22.14;48.88
498;BME280;39559;48.630;9.162;2023-08-08T13:05:03;97407.16;;;22.14;49.42
498;BME280;39559;48.630;9.162;2023-08-08T13:07:29;97410.75;;;21.64;48.66
498;BME280;39559;48.630;9.162;2023-08-08T13:09:54;97401.63;;;21.37;52.38
498;BME280;39559;48.630;9.162;2023-08-08T13:12:20;97412.91;;;20.99;52.10
498;BME280;39559;48.630;9.162;2023-08-08T13:14:47;97419.50;;;20.62;53.92
498;BME280;39559;48.630;9.162;2023-08-08T13:17:12;97415.44;;;20.37;55.66
498;BME280;39559;48.630;9.162;2023-08-08T13:21:39;97415.44;;;20.16;54.96
498;BME280;39559;48.630;9.162;2023-08-08T13:24:05;97424.72;;;19.99;55.78
498;BME280;39559;48.630;9.162;2023-08-08T13:26:31;97412.38;;;20.32;55.01
498;BME280;39559;48.630;9.162;2023-08-08T13:28:56;97412.28;;;20.85;55.02
498;BME280;39559;48.630;9.162;2023-08-08T13:31:22;97424.78;;;21.45;52.77
498;BME280;39559;48.630;9.162;2023-08-08T13:33:48;97417.13;;;21.52;51.46
498;BME280;39559;48.630;9.162;2023-08-08T13:36:14;97414.56;;;21.31;51.71
498;BME280;39559;48.630;9.162;2023-08-08T13:38:40;97406.69;;;21.09;51.90
498;BME280;39559;48.630;9.162;2023-08-08T13:41:05;97412.09;;;20.77;55.22
498;BME280;39559;48.630;9.162;2023-08-08T13:45:34;97409.84;;;20.30;55.67
498;BME280;39559;48.630;9.162;2023-08-08T13:48:00;97414.59;;;20.16;54.50
498;BME280;39559;48.630;9.162;2023-08-08T13:50:26;97419.47;;;20.20;55.21
498;BME280;39559;48.630;9.162;2023-08-08T13:52:51;97413.06;;;20.34;54.26
498;BME280;39559;48.630;9.162;2023-08-08T13:55:18;97418.66;;;20.41;55.68
498;BME280;39559;48.630;9.162;2023-08-08T13:57:44;97410.25;;;20.47;57.20
498;BME280;39559;48.630;9.162;2023-08-08T14:00:10;97419.03;;;20.57;57.22
498;BME280;39559;48.630;9.162;2023-08-08T14:02:41;97408.06;;;21.04;56.23
498;BME280;39559;48.630;9.162;2023-08-08T14:05:06;97414.13;;;20.95;55.25
498;BME280;39559;48.630;9.162;2023-08-08T14:09:29;97407.66;;;20.78;57.54
498;BME280;39559;48.630;9.162;2023-08-08T14:11:55;97411.53;;;20.74;57.58
498;BME280;39559;48.630;9.162;2023-08-08T14:14:20;97414.84;;;20.33;59.44
498;BME280;39559;48.630;9.162;2023-08-08T14:16:46;97412.13;;;20.03;61.04
498;BME280;39559;48.630;9.162;2023-08-08T14:19:12;97411.41;;;20.01;57.31
498;BME280;39559;48.630;9.162;2023-08-08T14:21:38;97408.91;;;19.99;57.22
498;BME280;39559;48.630;9.162;2023-08-08T14:24:04;97418.66;;;19.87;58.73
498;BME280;39559;48.630;9.162;2023-08-08T14:26:29;97422.31;;;19.52;59.41